Windhoek — 3FWJ3 — position and weather

sailwx.info

Track history (hours):
 
Tides and Currents Weather Stations Pressure Air Temp Water Temp Dewpoint Dewpoint Depression Visibility Wind Speed Wind Dir Waves Ship Positions

Windhoek

Last reported at 2017-Jun-27 22:04 UTC. Time now 2017-Jun-27 22:36 UTC.
Position N 29°40' W 012°24'.

Length 172 m; draft 6.5 m.

Type: Ship (hazmat cat C). MMSI: 370431000.

Date/timePositionNaut miles runAvg speedWind from/ knotsBaromVisibWave heightAir tempDewpointWater temp
2017-Jun-27 22:04N 29°40' W 012°24'114.9
2017-Jun-27 22:00N 29°39' W 012°24'1014.6
2017-Jun-27 21:20N 29°31' W 012°30'514.4
2017-Jun-27 21:00N 29°27' W 012°33'714.3
2017-Jun-27 20:30N 29°21' W 012°37'714.4
2017-Jun-27 20:00N 29°15' W 012°42'714.3
2017-Jun-27 19:30N 29°09' W 012°46'714.4
2017-Jun-27 19:00N 29°03' W 012°51'714.5
2017-Jun-27 18:30N 28°56' W 012°55'815.3
2017-Jun-27 18:00N 28°50' W 012°60'815.0
2017-Jun-27 17:30N 28°44' W 013°04'714.9
2017-Jun-27 17:00N 28°38' W 013°09'814.9
2017-Jun-27 16:28N 28°31' W 013°14'715.4
2017-Jun-27 16:00N 28°25' W 013°18'815.4
2017-Jun-27 15:30N 28°18' W 013°23'815.3
2017-Jun-27 14:59N 28°11' W 013°28'1515.0
2017-Jun-27 14:00N 27°59' W 013°37'815.1
2017-Jun-27 13:29N 27°53' W 013°42'714.8
2017-Jun-27 13:00N 27°47' W 013°46'715.0
2017-Jun-27 12:30N 27°41' W 013°51'815.3
2017-Jun-27 12:00N 27°34' W 013°56'815.5
2017-Jun-27 11:30N 27°28' W 014°00'815.6
2017-Jun-27 11:00N 27°21' W 014°05'714.9
2017-Jun-27 10:30N 27°14' W 014°09'815.5
2017-Jun-27 10:00N 27°08' W 014°13'815.6
2017-Jun-27 09:30N 27°01' W 014°18'  
Track history (hours):
 
Tides and Currents Weather Stations Pressure Air Temp Water Temp Dewpoint Dewpoint Depression Visibility Wind Speed Wind Dir Waves Ship Positions

Windhoek

Last reported at 2017-Jun-27 22:04 UTC. Time now 2017-Jun-27 22:36 UTC.
Position N 29°40' W 012°24'.

Length 172 m; draft 6.5 m.

Type: Ship (hazmat cat C). MMSI: 370431000.

Date/timePositionNaut miles runAvg speedWind from/ knotsBaromVisibWave heightAir tempDewpointWater temp
2017-Jun-27 22:04N 29°40' W 012°24'114.9
2017-Jun-27 22:00N 29°39' W 012°24'1014.6
2017-Jun-27 21:20N 29°31' W 012°30'514.4
2017-Jun-27 21:00N 29°27' W 012°33'714.3
2017-Jun-27 20:30N 29°21' W 012°37'714.4
2017-Jun-27 20:00N 29°15' W 012°42'714.3
2017-Jun-27 19:30N 29°09' W 012°46'714.4
2017-Jun-27 19:00N 29°03' W 012°51'714.5
2017-Jun-27 18:30N 28°56' W 012°55'815.3
2017-Jun-27 18:00N 28°50' W 012°60'815.0
2017-Jun-27 17:30N 28°44' W 013°04'714.9
2017-Jun-27 17:00N 28°38' W 013°09'814.9
2017-Jun-27 16:28N 28°31' W 013°14'715.4
2017-Jun-27 16:00N 28°25' W 013°18'815.4
2017-Jun-27 15:30N 28°18' W 013°23'815.3
2017-Jun-27 14:59N 28°11' W 013°28'1515.0
2017-Jun-27 14:00N 27°59' W 013°37'815.1
2017-Jun-27 13:29N 27°53' W 013°42'714.8
2017-Jun-27 13:00N 27°47' W 013°46'715.0
2017-Jun-27 12:30N 27°41' W 013°51'815.3
2017-Jun-27 12:00N 27°34' W 013°56'815.5
2017-Jun-27 11:30N 27°28' W 014°00'815.6
2017-Jun-27 11:00N 27°21' W 014°05'714.9
2017-Jun-27 10:30N 27°14' W 014°09'815.5
2017-Jun-27 10:00N 27°08' W 014°13'815.6
2017-Jun-27 09:30N 27°01' W 014°18'  

Dump ship's entire track history